sensor_id;sensor_type;location;lat;lon;timestamp;temperature;humidity
13115;DHT22;6623;52.120;8.660;2023-01-10T00:02:07;7.50;85.50
13115;DHT22;6623;52.120;8.660;2023-01-10T00:04:32;7.60;85.50
13115;DHT22;6623;52.120;8.660;2023-01-10T00:06:58;7.50;85.50
13115;DHT22;6623;52.120;8.660;2023-01-10T00:09:23;7.50;85.50
13115;DHT22;6623;52.120;8.660;2023-01-10T00:11:49;7.50;85.60
13115;DHT22;6623;52.120;8.660;2023-01-10T00:14:33;7.60;85.60
13115;DHT22;6623;52.120;8.660;2023-01-10T00:17:03;7.50;85.50
13115;DHT22;6623;52.120;8.660;2023-01-10T00:19:29;7.60;85.50
13115;DHT22;6623;52.120;8.660;2023-01-10T00:21:54;7.50;85.30
13115;DHT22;6623;52.120;8.660;2023-01-10T00:24:29;7.50;85.10
13115;DHT22;6623;52.120;8.660;2023-01-10T00:26:54;7.50;84.90
13115;DHT22;6623;52.120;8.660;2023-01-10T00:29:24;7.40;84.90
13115;DHT22;6623;52.120;8.660;2023-01-10T00:31:49;7.40;85.00
13115;DHT22;6623;52.120;8.660;2023-01-10T00:34:15;7.40;85.20
13115;DHT22;6623;52.120;8.660;2023-01-10T00:36:41;7.40;85.10
13115;DHT22;6623;52.120;8.660;2023-01-10T00:39:07;7.40;85.10
13115;DHT22;6623;52.120;8.660;2023-01-10T00:41:35;7.50;85.10
13115;DHT22;6623;52.120;8.660;2023-01-10T00:44:19;7.40;85.00
13115;DHT22;6623;52.120;8.660;2023-01-10T00:46:44;7.30;84.90
13115;DHT22;6623;52.120;8.660;2023-01-10T00:49:10;7.30;84.80
13115;DHT22;6623;52.120;8.660;2023-01-10T00:51:38;7.20;84.50
13115;DHT22;6623;52.120;8.660;2023-01-10T00:54:04;7.20;84.30
13115;DHT22;6623;52.120;8.660;2023-01-10T00:56:29;7.20;84.30
13115;DHT22;6623;52.120;8.660;2023-01-10T00:58:55;7.10;84.20
13115;DHT22;6623;52.120;8.660;2023-01-10T01:01:20;7.00;84.10
13115;DHT22;6623;52.120;8.660;2023-01-10T01:03:46;7.10;84.20
13115;DHT22;6623;52.120;8.660;2023-01-10T01:06:11;6.90;84.20
13115;DHT22;6623;52.120;8.660;2023-01-10T01:08:37;6.90;84.30
13115;DHT22;6623;52.120;8.660;2023-01-10T01:11:02;6.90;84.30
13115;DHT22;6623;52.120;8.660;2023-01-10T01:13:28;6.90;84.30
13115;DHT22;6623;52.120;8.660;2023-01-10T01:15:57;6.80;84.40
13115;DHT22;6623;52.120;8.660;2023-01-10T01:18:23;6.90;84.70
13115;DHT22;6623;52.120;8.660;2023-01-10T01:20:52;6.90;85.00
13115;DHT22;6623;52.120;8.660;2023-01-10T01:23:19;6.90;85.10
13115;DHT22;6623;52.120;8.660;2023-01-10T01:25:44;7.00;85.30
13115;DHT22;6623;52.120;8.660;2023-01-10T01:28:11;7.00;85.40
13115;DHT22;6623;52.120;8.660;2023-01-10T01:30:36;7.00;85.50
13115;DHT22;6623;52.120;8.660;2023-01-10T01:33:03;7.10;85.60
13115;DHT22;6623;52.120;8.660;2023-01-10T01:35:28;7.00;85.70
13115;DHT22;6623;52.120;8.660;2023-01-10T01:37:54;7.10;85.80
13115;DHT22;6623;52.120;8.660;2023-01-10T01:40:21;7.10;85.80
13115;DHT22;6623;52.120;8.660;2023-01-10T01:42:48;7.10;85.80
13115;DHT22;6623;52.120;8.660;2023-01-10T01:47:53;7.20;85.50
13115;DHT22;6623;52.120;8.660;2023-01-10T01:53:23;7.10;85.20
13115;DHT22;6623;52.120;8.660;2023-01-10T01:55:52;7.10;85.00
13115;DHT22;6623;52.120;8.660;2023-01-10T01:58:24;7.10;85.00
13115;DHT22;6623;52.120;8.660;2023-01-10T02:00:52;7.00;85.00
13115;DHT22;6623;52.120;8.660;2023-01-10T02:03:18;7.00;85.30
13115;DHT22;6623;52.120;8.660;2023-01-10T02:05:44;7.00;85.40
13115;DHT22;6623;52.120;8.660;2023-01-10T02:08:11;7.00;85.30
13115;DHT22;6623;52.120;8.660;2023-01-10T02:10:48;7.00;85.20
13115;DHT22;6623;52.120;8.660;2023-01-10T02:13:18;6.90;84.90
13115;DHT22;6623;52.120;8.660;2023-01-10T02:15:45;6.90;84.80
13115;DHT22;6623;52.120;8.660;2023-01-10T02:18:11;6.80;84.80
13115;DHT22;6623;52.120;8.660;2023-01-10T02:24:11;6.80;84.70
13115;DHT22;6623;52.120;8.660;2023-01-10T02:27:05;6.70;84.70
13115;DHT22;6623;52.120;8.660;2023-01-10T02:30:01;6.70;84.70
13115;DHT22;6623;52.120;8.660;2023-01-10T02:32:38;6.70;85.00
13115;DHT22;6623;52.120;8.660;2023-01-10T02:37:52;6.70;85.20
13115;DHT22;6623;52.120;8.660;2023-01-10T02:40:24;6.70;85.30
13115;DHT22;6623;52.120;8.660;2023-01-10T02:43:04;6.70;85.40
13115;DHT22;6623;52.120;8.660;2023-01-10T02:45:57;6.80;85.50
13115;DHT22;6623;52.120;8.660;2023-01-10T02:48:24;6.80;85.70
13115;DHT22;6623;52.120;8.660;2023-01-10T02:51:03;6.80;85.80
13115;DHT22;6623;52.120;8.660;2023-01-10T02:53:45;6.80;86.00
13115;DHT22;6623;52.120;8.660;2023-01-10T02:59:37;6.80;86.00
13115;DHT22;6623;52.120;8.660;2023-01-10T03:08:04;6.90;86.40
13115;DHT22;6623;52.120;8.660;2023-01-10T03:10:45;6.90;86.40
13115;DHT22;6623;52.120;8.660;2023-01-10T03:13:25;6.90;86.40
13115;DHT22;6623;52.120;8.660;2023-01-10T03:15:53;7.00;86.50
13115;DHT22;6623;52.120;8.660;2023-01-10T03:18:23;7.00;86.40
13115;DHT22;6623;52.120;8.660;2023-01-10T03:20:52;7.00;86.40
13115;DHT22;6623;52.120;8.660;2023-01-10T03:23:21;7.00;86.40
13115;DHT22;6623;52.120;8.660;2023-01-10T03:25:48;7.00;86.40
13115;DHT22;6623;52.120;8.660;2023-01-10T03:28:27;7.00;86.30
13115;DHT22;6623;52.120;8.660;2023-01-10T03:31:08;6.90;86.30
13115;DHT22;6623;52.120;8.660;2023-01-10T03:33:35;7.00;86.40
13115;DHT22;6623;52.120;8.660;2023-01-10T03:36:06;7.00;86.40
13115;DHT22;6623;52.120;8.660;2023-01-10T03:38:53;7.00;86.20
13115;DHT22;6623;52.120;8.660;2023-01-10T03:41:39;6.90;86.10
13115;DHT22;6623;52.120;8.660;2023-01-10T03:47:13;7.00;86.00
13115;DHT22;6623;52.120;8.660;2023-01-10T03:49:41;6.90;85.80
13115;DHT22;6623;52.120;8.660;2023-01-10T03:52:11;6.90;85.80
13115;DHT22;6623;52.120;8.660;2023-01-10T03:54:38;6.90;85.80
13115;DHT22;6623;52.120;8.660;2023-01-10T03:57:04;6.90;85.70
13115;DHT22;6623;52.120;8.660;2023-01-10T03:59:30;6.90;85.70
13115;DHT22;6623;52.120;8.660;2023-01-10T04:01:56;6.90;85.80
13115;DHT22;6623;52.120;8.660;2023-01-10T04:04:21;6.90;85.90
13115;DHT22;6623;52.120;8.660;2023-01-10T04:06:47;6.90;85.80
13115;DHT22;6623;52.120;8.660;2023-01-10T04:09:13;6.90;86.50
13115;DHT22;6623;52.120;8.660;2023-01-10T04:11:38;6.90;85.80
13115;DHT22;6623;52.120;8.660;2023-01-10T04:14:04;6.90;85.60
13115;DHT22;6623;52.120;8.660;2023-01-10T04:16:29;6.90;85.60
13115;DHT22;6623;52.120;8.660;2023-01-10T04:18:55;6.90;85.60
13115;DHT22;6623;52.120;8.660;2023-01-10T04:21:21;6.90;85.60
13115;DHT22;6623;52.120;8.660;2023-01-10T04:23:46;7.00;85.60
13115;DHT22;6623;52.120;8.660;2023-01-10T04:26:12;6.90;85.40
13115;DHT22;6623;52.120;8.660;2023-01-10T04:28:37;6.90;85.10
13115;DHT22;6623;52.120;8.660;2023-01-10T04:31:03;6.90;84.90
13115;DHT22;6623;52.120;8.660;2023-01-10T04:33:29;6.80;84.70
13115;DHT22;6623;52.120;8.660;2023-01-10T04:35:54;6.80;84.90
13115;DHT22;6623;52.120;8.660;2023-01-10T04:38:20;6.80;85.00
13115;DHT22;6623;52.120;8.660;2023-01-10T04:40:53;6.80;85.00
13115;DHT22;6623;52.120;8.660;2023-01-10T04:43:19;6.80;84.80
13115;DHT22;6623;52.120;8.660;2023-01-10T04:45:44;6.70;84.60
13115;DHT22;6623;52.120;8.660;2023-01-10T04:48:10;6.70;84.60
13115;DHT22;6623;52.120;8.660;2023-01-10T04:50:36;6.70;84.60
13115;DHT22;6623;52.120;8.660;2023-01-10T04:53:01;6.70;84.70
13115;DHT22;6623;52.120;8.660;2023-01-10T04:55:27;6.60;84.80
13115;DHT22;6623;52.120;8.660;2023-01-10T04:57:52;6.60;84.90
13115;DHT22;6623;52.120;8.660;2023-01-10T05:00:18;6.60;85.00
13115;DHT22;6623;52.120;8.660;2023-01-10T05:02:43;6.60;85.00
13115;DHT22;6623;52.120;8.660;2023-01-10T05:05:10;6.60;84.90
13115;DHT22;6623;52.120;8.660;2023-01-10T05:07:36;6.60;85.00
13115;DHT22;6623;52.120;8.660;2023-01-10T05:10:03;6.60;85.10
13115;DHT22;6623;52.120;8.660;2023-01-10T05:12:28;6.60;85.20
13115;DHT22;6623;52.120;8.660;2023-01-10T05:14:54;6.60;85.40
13115;DHT22;6623;52.120;8.660;2023-01-10T05:17:19;6.60;85.50
13115;DHT22;6623;52.120;8.660;2023-01-10T05:19:45;6.70;85.70
13115;DHT22;6623;52.120;8.660;2023-01-10T05:22:10;6.70;85.70
13115;DHT22;6623;52.120;8.660;2023-01-10T05:24:36;6.70;85.70
13115;DHT22;6623;52.120;8.660;2023-01-10T05:27:01;6.70;85.80
13115;DHT22;6623;52.120;8.660;2023-01-10T05:29:27;6.80;85.90
13115;DHT22;6623;52.120;8.660;2023-01-10T05:31:52;6.80;85.90
13115;DHT22;6623;52.120;8.660;2023-01-10T05:34:19;6.80;85.90
13115;DHT22;6623;52.120;8.660;2023-01-10T05:36:44;6.80;85.90
13115;DHT22;6623;52.120;8.660;2023-01-10T05:39:10;6.90;86.00
13115;DHT22;6623;52.120;8.660;2023-01-10T05:41:36;6.80;85.80
13115;DHT22;6623;52.120;8.660;2023-01-10T05:44:01;6.90;85.70
13115;DHT22;6623;52.120;8.660;2023-01-10T05:46:27;6.80;85.40
13115;DHT22;6623;52.120;8.660;2023-01-10T05:48:53;6.80;85.20
13115;DHT22;6623;52.120;8.660;2023-01-10T05:51:18;6.70;85.00
13115;DHT22;6623;52.120;8.660;2023-01-10T05:53:44;6.70;85.10
13115;DHT22;6623;52.120;8.660;2023-01-10T05:56:09;6.70;85.30
13115;DHT22;6623;52.120;8.660;2023-01-10T05:58:35;6.70;85.50
13115;DHT22;6623;52.120;8.660;2023-01-10T06:01:00;6.70;85.60
13115;DHT22;6623;52.120;8.660;2023-01-10T06:03:26;6.70;85.60
13115;DHT22;6623;52.120;8.660;2023-01-10T06:05:55;6.80;85.60
13115;DHT22;6623;52.120;8.660;2023-01-10T06:08:21;6.80;85.60
13115;DHT22;6623;52.120;8.660;2023-01-10T06:10:47;6.80;85.30
13115;DHT22;6623;52.120;8.660;2023-01-10T06:13:13;6.80;85.00
13115;DHT22;6623;52.120;8.660;2023-01-10T06:15:38;6.80;84.80
13115;DHT22;6623;52.120;8.660;2023-01-10T06:18:04;6.70;84.70
13115;DHT22;6623;52.120;8.660;2023-01-10T06:20:30;6.60;84.60
13115;DHT22;6623;52.120;8.660;2023-01-10T06:22:56;6.60;84.80
13115;DHT22;6623;52.120;8.660;2023-01-10T06:25:22;6.60;84.60
13115;DHT22;6623;52.120;8.660;2023-01-10T06:27:48;6.50;84.50
13115;DHT22;6623;52.120;8.660;2023-01-10T06:30:14;6.50;84.50
13115;DHT22;6623;52.120;8.660;2023-01-10T06:32:40;7.70;85.20
13115;DHT22;6623;52.120;8.660;2023-01-10T06:35:07;6.90;84.70
13115;DHT22;6623;52.120;8.660;2023-01-10T06:37:32;6.40;84.60
13115;DHT22;6623;52.120;8.660;2023-01-10T06:39:58;6.40;84.90
13115;DHT22;6623;52.120;8.660;2023-01-10T06:42:24;6.40;85.20
13115;DHT22;6623;52.120;8.660;2023-01-10T06:44:49;6.50;85.50
13115;DHT22;6623;52.120;8.660;2023-01-10T06:47:15;6.50;85.60
13115;DHT22;6623;52.120;8.660;2023-01-10T06:49:40;6.60;85.80
13115;DHT22;6623;52.120;8.660;2023-01-10T06:52:06;6.60;85.80
13115;DHT22;6623;52.120;8.660;2023-01-10T06:54:31;6.70;85.80
13115;DHT22;6623;52.120;8.660;2023-01-10T06:56:57;6.60;85.60
13115;DHT22;6623;52.120;8.660;2023-01-10T06:59:22;6.70;85.60
13115;DHT22;6623;52.120;8.660;2023-01-10T07:01:48;6.80;85.80
13115;DHT22;6623;52.120;8.660;2023-01-10T07:04:13;6.70;85.80
13115;DHT22;6623;52.120;8.660;2023-01-10T07:06:39;6.70;85.90
13115;DHT22;6623;52.120;8.660;2023-01-10T07:09:06;6.70;85.90
13115;DHT22;6623;52.120;8.660;2023-01-10T07:11:32;6.80;85.80
13115;DHT22;6623;52.120;8.660;2023-01-10T07:13:59;6.80;85.70
13115;DHT22;6623;52.120;8.660;2023-01-10T07:16:25;6.80;85.70
13115;DHT22;6623;52.120;8.660;2023-01-10T07:18:51;6.80;85.80
13115;DHT22;6623;52.120;8.660;2023-01-10T07:21:16;6.80;85.70
13115;DHT22;6623;52.120;8.660;2023-01-10T07:23:46;6.90;85.80
13115;DHT22;6623;52.120;8.660;2023-01-10T07:26:13;6.80;85.70
13115;DHT22;6623;52.120;8.660;2023-01-10T07:28:42;6.90;85.80
13115;DHT22;6623;52.120;8.660;2023-01-10T07:31:09;6.90;85.80
13115;DHT22;6623;52.120;8.660;2023-01-10T07:33:35;6.90;85.80
13115;DHT22;6623;52.120;8.660;2023-01-10T07:36:01;6.90;85.80
13115;DHT22;6623;52.120;8.660;2023-01-10T07:38:27;7.00;85.70
13115;DHT22;6623;52.120;8.660;2023-01-10T07:40:53;7.00;85.70
13115;DHT22;6623;52.120;8.660;2023-01-10T07:43:18;7.00;85.70
13115;DHT22;6623;52.120;8.660;2023-01-10T07:45:44;7.00;85.70
13115;DHT22;6623;52.120;8.660;2023-01-10T07:48:09;7.20;85.80
13115;DHT22;6623;52.120;8.660;2023-01-10T07:50:36;7.00;85.60
13115;DHT22;6623;52.120;8.660;2023-01-10T07:53:03;7.00;85.60
13115;DHT22;6623;52.120;8.660;2023-01-10T07:55:30;7.00;85.60
13115;DHT22;6623;52.120;8.660;2023-01-10T07:57:55;7.00;85.50
13115;DHT22;6623;52.120;8.660;2023-01-10T08:00:21;7.00;85.40
13115;DHT22;6623;52.120;8.660;2023-01-10T08:02:51;7.00;85.40
13115;DHT22;6623;52.120;8.660;2023-01-10T08:05:16;6.90;85.30
13115;DHT22;6623;52.120;8.660;2023-01-10T08:07:42;7.00;85.10
13115;DHT22;6623;52.120;8.660;2023-01-10T08:10:09;6.90;85.00
13115;DHT22;6623;52.120;8.660;2023-01-10T08:12:34;6.90;85.00
13115;DHT22;6623;52.120;8.660;2023-01-10T08:15:00;6.90;85.10
13115;DHT22;6623;52.120;8.660;2023-01-10T08:17:26;6.90;85.30
13115;DHT22;6623;52.120;8.660;2023-01-10T08:19:51;7.00;85.40
13115;DHT22;6623;52.120;8.660;2023-01-10T08:22:17;7.00;85.30
13115;DHT22;6623;52.120;8.660;2023-01-10T08:24:42;7.00;85.30
13115;DHT22;6623;52.120;8.660;2023-01-10T08:27:08;7.00;85.40
13115;DHT22;6623;52.120;8.660;2023-01-10T08:29:34;7.10;85.60
13115;DHT22;6623;52.120;8.660;2023-01-10T08:32:00;7.10;85.60
13115;DHT22;6623;52.120;8.660;2023-01-10T08:34:25;7.10;85.30
13115;DHT22;6623;52.120;8.660;2023-01-10T08:36:52;7.10;85.30
13115;DHT22;6623;52.120;8.660;2023-01-10T08:39:18;7.10;85.30
13115;DHT22;6623;52.120;8.660;2023-01-10T08:41:46;7.10;85.20
13115;DHT22;6623;52.120;8.660;2023-01-10T08:44:12;7.10;85.20
13115;DHT22;6623;52.120;8.660;2023-01-10T08:46:40;7.10;85.20
13115;DHT22;6623;52.120;8.660;2023-01-10T08:49:05;7.10;85.10
13115;DHT22;6623;52.120;8.660;2023-01-10T08:51:31;7.10;85.10
13115;DHT22;6623;52.120;8.660;2023-01-10T08:53:58;7.10;85.10
13115;DHT22;6623;52.120;8.660;2023-01-10T08:56:25;7.10;85.20
13115;DHT22;6623;52.120;8.660;2023-01-10T08:58:51;7.10;85.20
13115;DHT22;6623;52.120;8.660;2023-01-10T09:01:16;7.10;85.10
13115;DHT22;6623;52.120;8.660;2023-01-10T09:03:42;7.20;85.20
13115;DHT22;6623;52.120;8.660;2023-01-10T09:06:08;7.20;85.10
13115;DHT22;6623;52.120;8.660;2023-01-10T09:08:37;7.20;84.90
13115;DHT22;6623;52.120;8.660;2023-01-10T09:11:03;7.20;85.00
13115;DHT22;6623;52.120;8.660;2023-01-10T09:13:29;7.20;85.00
13115;DHT22;6623;52.120;8.660;2023-01-10T09:15:55;7.20;84.90
13115;DHT22;6623;52.120;8.660;2023-01-10T09:18:22;7.20;84.90
13115;DHT22;6623;52.120;8.660;2023-01-10T09:20:49;7.20;84.80
13115;DHT22;6623;52.120;8.660;2023-01-10T09:23:17;7.20;84.90
13115;DHT22;6623;52.120;8.660;2023-01-10T09:25:49;7.20;84.80
13115;DHT22;6623;52.120;8.660;2023-01-10T09:28:15;7.30;84.90
13115;DHT22;6623;52.120;8.660;2023-01-10T09:30:41;7.30;84.90
13115;DHT22;6623;52.120;8.660;2023-01-10T09:33:07;7.30;84.90
13115;DHT22;6623;52.120;8.660;2023-01-10T09:35:36;7.40;85.00
13115;DHT22;6623;52.120;8.660;2023-01-10T09:38:03;7.40;85.00
13115;DHT22;6623;52.120;8.660;2023-01-10T09:40:55;7.40;85.00
13115;DHT22;6623;52.120;8.660;2023-01-10T09:43:57;7.50;84.70
13115;DHT22;6623;52.120;8.660;2023-01-10T09:46:36;7.50;84.60
13115;DHT22;6623;52.120;8.660;2023-01-10T09:51:59;7.50;84.30
13115;DHT22;6623;52.120;8.660;2023-01-10T09:54:33;7.50;84.20
13115;DHT22;6623;52.120;8.660;2023-01-10T09:57:01;7.60;84.20
13115;DHT22;6623;52.120;8.660;2023-01-10T09:59:35;7.60;84.10
13115;DHT22;6623;52.120;8.660;2023-01-10T10:02:24;7.60;83.90
13115;DHT22;6623;52.120;8.660;2023-01-10T10:07:33;7.50;83.90
13115;DHT22;6623;52.120;8.660;2023-01-10T10:09:59;7.50;83.80
13115;DHT22;6623;52.120;8.660;2023-01-10T10:15:55;7.50;83.60
13115;DHT22;6623;52.120;8.660;2023-01-10T10:24:03;7.50;83.50
13115;DHT22;6623;52.120;8.660;2023-01-10T10:26:44;7.60;83.80
13115;DHT22;6623;52.120;8.660;2023-01-10T10:32:24;7.60;83.40
13115;DHT22;6623;52.120;8.660;2023-01-10T10:35:00;7.60;83.60
13115;DHT22;6623;52.120;8.660;2023-01-10T10:37:34;7.60;83.70
13115;DHT22;6623;52.120;8.660;2023-01-10T10:40:23;7.70;83.90
13115;DHT22;6623;52.120;8.660;2023-01-10T10:42:54;7.80;83.90
13115;DHT22;6623;52.120;8.660;2023-01-10T10:48:06;7.90;83.80
13115;DHT22;6623;52.120;8.660;2023-01-10T10:51:11;8.00;83.50
13115;DHT22;6623;52.120;8.660;2023-01-10T10:53:34;8.00;83.20
13115;DHT22;6623;52.120;8.660;2023-01-10T10:56:02;8.00;83.00
13115;DHT22;6623;52.120;8.660;2023-01-10T10:58:28;8.00;82.70
13115;DHT22;6623;52.120;8.660;2023-01-10T11:00:56;8.00;82.60
13115;DHT22;6623;52.120;8.660;2023-01-10T11:03:26;7.90;82.50
13115;DHT22;6623;52.120;8.660;2023-01-10T11:05:57;7.90;82.60
13115;DHT22;6623;52.120;8.660;2023-01-10T11:08:23;8.90;83.20
13115;DHT22;6623;52.120;8.660;2023-01-10T11:10:53;8.00;82.90
13115;DHT22;6623;52.120;8.660;2023-01-10T11:15:46;8.00;82.60
13115;DHT22;6623;52.120;8.660;2023-01-10T11:18:18;8.00;82.50
13115;DHT22;6623;52.120;8.660;2023-01-10T11:21:13;8.00;82.50
13115;DHT22;6623;52.120;8.660;2023-01-10T11:23:40;8.00;82.30
13115;DHT22;6623;52.120;8.660;2023-01-10T11:26:42;8.00;82.30
13115;DHT22;6623;52.120;8.660;2023-01-10T11:29:25;8.00;82.20
13115;DHT22;6623;52.120;8.660;2023-01-10T11:31:53;8.00;82.30
13115;DHT22;6623;52.120;8.660;2023-01-10T11:34:32;8.00;82.30
13115;DHT22;6623;52.120;8.660;2023-01-10T11:37:02;8.00;82.30
13115;DHT22;6623;52.120;8.660;2023-01-10T11:39:29;8.00;82.30
13115;DHT22;6623;52.120;8.660;2023-01-10T11:41:55;8.10;82.30
13115;DHT22;6623;52.120;8.660;2023-01-10T11:44:24;8.10;82.30
13115;DHT22;6623;52.120;8.660;2023-01-10T11:46:54;8.10;82.20
13115;DHT22;6623;52.120;8.660;2023-01-10T11:52:13;8.10;81.80
13115;DHT22;6623;52.120;8.660;2023-01-10T11:54:40;8.10;81.70
13115;DHT22;6623;52.120;8.660;2023-01-10T11:57:15;8.10;81.80
13115;DHT22;6623;52.120;8.660;2023-01-10T12:00:03;8.20;81.90
13115;DHT22;6623;52.120;8.660;2023-01-10T12:02:33;8.20;81.60
13115;DHT22;6623;52.120;8.660;2023-01-10T12:05:02;8.20;81.70
13115;DHT22;6623;52.120;8.660;2023-01-10T12:07:28;8.30;81.80
13115;DHT22;6623;52.120;8.660;2023-01-10T12:10:00;8.30;81.70
13115;DHT22;6623;52.120;8.660;2023-01-10T12:12:28;8.30;81.60
13115;DHT22;6623;52.120;8.660;2023-01-10T12:14:56;8.30;81.40
13115;DHT22;6623;52.120;8.660;2023-01-10T12:19:49;8.40;81.20
13115;DHT22;6623;52.120;8.660;2023-01-10T12:22:18;8.40;81.00
13115;DHT22;6623;52.120;8.660;2023-01-10T12:24:47;8.40;81.00
13115;DHT22;6623;52.120;8.660;2023-01-10T12:27:15;8.40;80.90
13115;DHT22;6623;52.120;8.660;2023-01-10T12:29:46;8.40;80.80
13115;DHT22;6623;52.120;8.660;2023-01-10T12:32:20;8.40;80.70
13115;DHT22;6623;52.120;8.660;2023-01-10T12:34:52;8.40;80.40
13115;DHT22;6623;52.120;8.660;2023-01-10T12:37:39;8.40;80.30
13115;DHT22;6623;52.120;8.660;2023-01-10T12:40:13;8.40;80.20
13115;DHT22;6623;52.120;8.660;2023-01-10T12:45:55;8.40;80.10
13115;DHT22;6623;52.120;8.660;2023-01-10T12:48:43;8.40;80.10
13115;DHT22;6623;52.120;8.660;2023-01-10T12:51:14;8.40;80.00
13115;DHT22;6623;52.120;8.660;2023-01-10T12:53:46;8.40;80.20
13115;DHT22;6623;52.120;8.660;2023-01-10T12:56:14;8.40;80.00
13115;DHT22;6623;52.120;8.660;2023-01-10T12:59:10;8.50;79.90
13115;DHT22;6623;52.120;8.660;2023-01-10T13:01:34;8.40;79.70
13115;DHT22;6623;52.120;8.660;2023-01-10T13:04:13;8.50;79.50
13115;DHT22;6623;52.120;8.660;2023-01-10T13:06:41;8.50;80.10
13115;DHT22;6623;52.120;8.660;2023-01-10T13:09:17;8.50;79.30
13115;DHT22;6623;52.120;8.660;2023-01-10T13:14:24;8.50;79.10
13115;DHT22;6623;52.120;8.660;2023-01-10T13:17:01;8.60;78.90
13115;DHT22;6623;52.120;8.660;2023-01-10T13:19:29;8.40;78.70
13115;DHT22;6623;52.120;8.660;2023-01-10T13:22:19;8.40;78.60
13115;DHT22;6623;52.120;8.660;2023-01-10T13:24:59;8.40;78.50
13115;DHT22;6623;52.120;8.660;2023-01-10T13:27:33;8.40;78.40
13115;DHT22;6623;52.120;8.660;2023-01-10T13:30:00;8.40;79.00
13115;DHT22;6623;52.120;8.660;2023-01-10T13:32:34;8.40;78.40
13115;DHT22;6623;52.120;8.660;2023-01-10T13:35:20;8.40;78.20
13115;DHT22;6623;52.120;8.660;2023-01-10T13:37:53;8.40;78.30
13115;DHT22;6623;52.120;8.660;2023-01-10T13:40:29;8.40;78.20
13115;DHT22;6623;52.120;8.660;2023-01-10T13:51:19;8.40;78.20
13115;DHT22;6623;52.120;8.660;2023-01-10T13:54:30;8.40;78.10
13115;DHT22;6623;52.120;8.660;2023-01-10T13:56:40;8.40;78.00
13115;DHT22;6623;52.120;8.660;2023-01-10T14:02:13;8.40;77.80
13115;DHT22;6623;52.120;8.660;2023-01-10T14:05:04;8.40;77.80
13115;DHT22;6623;52.120;8.660;2023-01-10T14:07:51;8.30;77.70
13115;DHT22;6623;52.120;8.660;2023-01-10T14:10:30;8.30;77.60
13115;DHT22;6623;52.120;8.660;2023-01-10T14:13:00;8.30;77.60
13115;DHT22;6623;52.120;8.660;2023-01-10T14:15:43;8.30;77.50
13115;DHT22;6623;52.120;8.660;2023-01-10T14:18:23;8.20;77.40
13115;DHT22;6623;52.120;8.660;2023-01-10T14:20:59;8.20;77.40
13115;DHT22;6623;52.120;8.660;2023-01-10T14:25:56;8.20;77.20
13115;DHT22;6623;52.120;8.660;2023-01-10T14:28:30;8.20;77.20
13115;DHT22;6623;52.120;8.660;2023-01-10T14:31:05;8.20;77.20
13115;DHT22;6623;52.120;8.660;2023-01-10T14:33:35;8.20;77.20
13115;DHT22;6623;52.120;8.660;2023-01-10T14:36:08;8.20;77.20
13115;DHT22;6623;52.120;8.660;2023-01-10T14:38:38;8.20;77.10
13115;DHT22;6623;52.120;8.660;2023-01-10T14:41:20;8.20;77.20
13115;DHT22;6623;52.120;8.660;2023-01-10T14:43:53;8.20;77.20
13115;DHT22;6623;52.120;8.660;2023-01-10T14:49:25;8.30;77.10
13115;DHT22;6623;52.120;8.660;2023-01-10T14:51:53;8.20;76.90
13115;DHT22;6623;52.120;8.660;2023-01-10T14:54:25;8.10;76.90
13115;DHT22;6623;52.120;8.660;2023-01-10T14:56:52;8.10;76.80
13115;DHT22;6623;52.120;8.660;2023-01-10T14:59:23;8.10;76.80
13115;DHT22;6623;52.120;8.660;2023-01-10T15:01:50;8.10;76.70
13115;DHT22;6623;52.120;8.660;2023-01-10T15:04:18;8.10;76.60
13115;DHT22;6623;52.120;8.660;2023-01-10T15:07:10;8.10;76.60
13115;DHT22;6623;52.120;8.660;2023-01-10T15:09:36;8.00;76.60
13115;DHT22;6623;52.120;8.660;2023-01-10T15:12:04;8.00;76.60
13115;DHT22;6623;52.120;8.660;2023-01-10T15:14:32;8.00;76.60
13115;DHT22;6623;52.120;8.660;2023-01-10T15:17:00;8.00;76.60
13115;DHT22;6623;52.120;8.660;2023-01-10T15:19:30;8.00;76.60
13115;DHT22;6623;52.120;8.660;2023-01-10T15:21:57;8.00;76.70
13115;DHT22;6623;52.120;8.660;2023-01-10T15:24:34;8.00;76.60
13115;DHT22;6623;52.120;8.660;2023-01-10T15:27:10;8.00;76.50
13115;DHT22;6623;52.120;8.660;2023-01-10T15:29:39;8.00;76.50
13115;DHT22;6623;52.120;8.660;2023-01-10T15:32:34;8.00;76.50
13115;DHT22;6623;52.120;8.660;2023-01-10T15:35:03;8.00;76.40
13115;DHT22;6623;52.120;8.660;2023-01-10T15:37:33;7.90;76.40
13115;DHT22;6623;52.120;8.660;2023-01-10T15:40:02;7.90;76.30
13115;DHT22;6623;52.120;8.660;2023-01-10T15:42:29;7.90;76.30
13115;DHT22;6623;52.120;8.660;2023-01-10T15:44:56;7.90;76.30
13115;DHT22;6623;52.120;8.660;2023-01-10T15:50:22;7.90;76.20
13115;DHT22;6623;52.120;8.660;2023-01-10T15:52:53;7.90;76.30
13115;DHT22;6623;52.120;8.660;2023-01-10T15:58:13;7.90;76.30
13115;DHT22;6623;52.120;8.660;2023-01-10T16:00:47;7.90;76.20
13115;DHT22;6623;52.120;8.660;2023-01-10T16:03:21;7.80;76.10
13115;DHT22;6623;52.120;8.660;2023-01-10T16:05:51;7.90;76.10
13115;DHT22;6623;52.120;8.660;2023-01-10T16:08:22;7.90;76.10
13115;DHT22;6623;52.120;8.660;2023-01-10T16:10:58;7.80;76.10
13115;DHT22;6623;52.120;8.660;2023-01-10T16:13:24;7.80;76.00
13115;DHT22;6623;52.120;8.660;2023-01-10T16:15:54;7.80;76.00
13115;DHT22;6623;52.120;8.660;2023-01-10T16:18:21;7.80;76.00
13115;DHT22;6623;52.120;8.660;2023-01-10T16:20:47;7.80;76.00
13115;DHT22;6623;52.120;8.660;2023-01-10T16:23:15;7.80;75.90
13115;DHT22;6623;52.120;8.660;2023-01-10T16:25:45;7.80;75.90
13115;DHT22;6623;52.120;8.660;2023-01-10T16:28:13;7.80;75.80
13115;DHT22;6623;52.120;8.660;2023-01-10T16:30:39;7.80;75.80
13115;DHT22;6623;52.120;8.660;2023-01-10T16:33:18;7.80;75.80
13115;DHT22;6623;52.120;8.660;2023-01-10T16:35:48;7.80;75.70
13115;DHT22;6623;52.120;8.660;2023-01-10T16:38:14;7.80;75.80
13115;DHT22;6623;52.120;8.660;2023-01-10T16:40:45;7.80;75.70
13115;DHT22;6623;52.120;8.660;2023-01-10T16:43:12;7.80;75.60
13115;DHT22;6623;52.120;8.660;2023-01-10T16:45:51;7.80;75.60
13115;DHT22;6623;52.120;8.660;2023-01-10T16:48:18;7.80;75.50
13115;DHT22;6623;52.120;8.660;2023-01-10T16:50:44;7.80;75.50
13115;DHT22;6623;52.120;8.660;2023-01-10T16:53:11;7.80;75.40
13115;DHT22;6623;52.120;8.660;2023-01-10T16:56:04;7.70;75.30
13115;DHT22;6623;52.120;8.660;2023-01-10T16:58:29;7.80;75.40
13115;DHT22;6623;52.120;8.660;2023-01-10T17:00:56;7.80;75.40
13115;DHT22;6623;52.120;8.660;2023-01-10T17:03:24;7.80;75.30
13115;DHT22;6623;52.120;8.660;2023-01-10T17:05:51;7.80;75.20
13115;DHT22;6623;52.120;8.660;2023-01-10T17:08:19;7.80;75.10
13115;DHT22;6623;52.120;8.660;2023-01-10T17:10:48;7.80;75.00
13115;DHT22;6623;52.120;8.660;2023-01-10T17:13:21;7.80;75.00
13115;DHT22;6623;52.120;8.660;2023-01-10T17:15:47;7.80;75.00
13115;DHT22;6623;52.120;8.660;2023-01-10T17:18:13;7.80;74.90
13115;DHT22;6623;52.120;8.660;2023-01-10T17:20:38;7.80;74.90
13115;DHT22;6623;52.120;8.660;2023-01-10T17:23:04;7.80;74.80
13115;DHT22;6623;52.120;8.660;2023-01-10T17:25:29;7.80;74.70
13115;DHT22;6623;52.120;8.660;2023-01-10T17:27:55;7.80;74.70
13115;DHT22;6623;52.120;8.660;2023-01-10T17:30:20;7.80;74.60
13115;DHT22;6623;52.120;8.660;2023-01-10T17:32:46;7.80;74.60
13115;DHT22;6623;52.120;8.660;2023-01-10T17:35:11;7.80;74.60
13115;DHT22;6623;52.120;8.660;2023-01-10T17:37:37;7.80;74.40
13115;DHT22;6623;52.120;8.660;2023-01-10T17:40:04;7.80;74.30